sensor_id;sensor_type;location;lat;lon;timestamp;pressure;altitude;pressure_sealevel;temperature;humidity
27980;BME280;15315;50.836;4.430;2024-01-25T00:07:54;102417.72;;;15.56;70.15
27980;BME280;15315;50.836;4.430;2024-01-25T00:17:54;102417.03;;;15.53;70.21
27980;BME280;15315;50.836;4.430;2024-01-25T00:27:55;102423.31;;;15.11;72.26
27980;BME280;15315;50.836;4.430;2024-01-25T00:37:55;102413.69;;;15.19;71.75
27980;BME280;15315;50.836;4.430;2024-01-25T00:47:56;102432.84;;;15.60;69.54
27980;BME280;15315;50.836;4.430;2024-01-25T00:57:57;102425.59;;;15.47;69.65
27980;BME280;15315;50.836;4.430;2024-01-25T01:08:00;102419.19;;;14.90;72.29
27980;BME280;15315;50.836;4.430;2024-01-25T01:18:00;102433.09;;;15.27;70.25
27980;BME280;15315;50.836;4.430;2024-01-25T01:28:01;102435.31;;;15.07;71.18
27980;BME280;15315;50.836;4.430;2024-01-25T01:38:01;102450.31;;;14.84;71.59
27980;BME280;15315;50.836;4.430;2024-01-25T01:48:02;102459.63;;;14.80;71.02
27980;BME280;15315;50.836;4.430;2024-01-25T01:58:03;102445.25;;;14.78;70.81
27980;BME280;15315;50.836;4.430;2024-01-25T02:08:04;102455.00;;;14.96;69.63
27980;BME280;15315;50.836;4.430;2024-01-25T02:18:05;102458.25;;;15.31;67.26
27980;BME280;15315;50.836;4.430;2024-01-25T02:28:05;102444.22;;;14.95;66.87
27980;BME280;15315;50.836;4.430;2024-01-25T02:38:06;102447.41;;;14.87;66.41
27980;BME280;15315;50.836;4.430;2024-01-25T02:48:06;102455.16;;;14.79;66.81
27980;BME280;15315;50.836;4.430;2024-01-25T02:58:07;102447.22;;;14.60;67.30
27980;BME280;15315;50.836;4.430;2024-01-25T03:08:07;102440.59;;;14.35;67.76
27980;BME280;15315;50.836;4.430;2024-01-25T03:18:10;102454.09;;;14.36;67.35
27980;BME280;15315;50.836;4.430;2024-01-25T03:28:11;102468.72;;;14.18;68.32
27980;BME280;15315;50.836;4.430;2024-01-25T03:38:14;102453.84;;;13.94;68.99
27980;BME280;15315;50.836;4.430;2024-01-25T03:48:14;102436.00;;;13.90;69.07
27980;BME280;15315;50.836;4.430;2024-01-25T03:58:16;102482.53;;;13.98;68.31
27980;BME280;15315;50.836;4.430;2024-01-25T04:08:18;102468.72;;;14.18;66.42
27980;BME280;15315;50.836;4.430;2024-01-25T04:18:18;102454.78;;;13.62;67.99
27980;BME280;15315;50.836;4.430;2024-01-25T04:28:19;102458.47;;;13.76;66.82
27980;BME280;15315;50.836;4.430;2024-01-25T04:38:20;102460.31;;;14.07;64.86
27980;BME280;15315;50.836;4.430;2024-01-25T04:48:20;102464.34;;;14.00;65.22
27980;BME280;15315;50.836;4.430;2024-01-25T04:58:23;102459.44;;;13.25;66.08
27980;BME280;15315;50.836;4.430;2024-01-25T05:08:23;102459.09;;;12.81;68.04
27980;BME280;15315;50.836;4.430;2024-01-25T05:18:24;102469.19;;;13.12;66.89
27980;BME280;15315;50.836;4.430;2024-01-25T05:28:24;102475.06;;;13.37;64.93
27980;BME280;15315;50.836;4.430;2024-01-25T05:38:25;102466.94;;;13.20;65.13
27980;BME280;15315;50.836;4.430;2024-01-25T05:48:25;102463.19;;;13.73;62.72
27980;BME280;15315;50.836;4.430;2024-01-25T05:58:25;102475.38;;;13.31;63.48
27980;BME280;15315;50.836;4.430;2024-01-25T06:08:26;102483.97;;;13.56;62.74
27980;BME280;15315;50.836;4.430;2024-01-25T06:18:27;102481.06;;;13.10;63.31
27980;BME280;15315;50.836;4.430;2024-01-25T06:28:27;102472.63;;;13.48;62.19
27980;BME280;15315;50.836;4.430;2024-01-25T06:38:27;102476.75;;;13.23;63.01
27980;BME280;15315;50.836;4.430;2024-01-25T06:48:28;102487.34;;;12.59;65.65
27980;BME280;15315;50.836;4.430;2024-01-25T06:58:28;102475.69;;;13.25;63.57
27980;BME280;15315;50.836;4.430;2024-01-25T07:08:30;102480.97;;;13.28;63.98
27980;BME280;15315;50.836;4.430;2024-01-25T07:18:30;102477.84;;;13.36;64.04
27980;BME280;15315;50.836;4.430;2024-01-25T07:28:31;102468.25;;;13.46;64.46
27980;BME280;15315;50.836;4.430;2024-01-25T07:38:32;102486.78;;;12.69;68.58
27980;BME280;15315;50.836;4.430;2024-01-25T07:48:32;102484.31;;;13.66;66.93
27980;BME280;15315;50.836;4.430;2024-01-25T07:58:32;102459.03;;;13.50;69.47
27980;BME280;15315;50.836;4.430;2024-01-25T08:08:33;102486.13;;;13.98;67.81
27980;BME280;15315;50.836;4.430;2024-01-25T08:18:33;102458.88;;;13.36;70.04
27980;BME280;15315;50.836;4.430;2024-01-25T08:28:34;102459.47;;;13.58;71.74
27980;BME280;15315;50.836;4.430;2024-01-25T08:38:34;102470.66;;;14.32;70.23
27980;BME280;15315;50.836;4.430;2024-01-25T08:48:34;102457.16;;;14.75;68.61
27980;BME280;15315;50.836;4.430;2024-01-25T08:58:35;102456.16;;;14.92;68.34
27980;BME280;15315;50.836;4.430;2024-01-25T09:08:35;102453.28;;;15.09;68.27
27980;BME280;15315;50.836;4.430;2024-01-25T09:18:36;102455.03;;;15.24;68.09
27980;BME280;15315;50.836;4.430;2024-01-25T09:28:36;102443.09;;;15.27;69.47
27980;BME280;15315;50.836;4.430;2024-01-25T09:38:36;102433.72;;;15.61;68.74
27980;BME280;15315;50.836;4.430;2024-01-25T09:48:37;102435.31;;;14.93;70.12
27980;BME280;15315;50.836;4.430;2024-01-25T09:58:43;102426.75;;;15.42;69.53
27980;BME280;15315;50.836;4.430;2024-01-25T10:08:45;102430.50;;;15.82;69.93
27980;BME280;15315;50.836;4.430;2024-01-25T10:18:47;102419.06;;;15.77;70.05
27980;BME280;15315;50.836;4.430;2024-01-25T10:28:52;102413.66;;;15.49;71.74
27980;BME280;15315;50.836;4.430;2024-01-25T10:38:53;102417.34;;;16.03;69.56
27980;BME280;15315;50.836;4.430;2024-01-25T10:48:57;102412.22;;;15.84;69.08
27980;BME280;15315;50.836;4.430;2024-01-25T10:58:59;102395.59;;;15.89;70.42
27980;BME280;15315;50.836;4.430;2024-01-25T11:09:06;102372.84;;;16.31;70.50
27980;BME280;15315;50.836;4.430;2024-01-25T11:19:07;102349.63;;;16.25;69.82
27980;BME280;15315;50.836;4.430;2024-01-25T11:29:08;102337.47;;;16.17;73.73
27980;BME280;15315;50.836;4.430;2024-01-25T11:39:09;102327.03;;;16.50;73.05
27980;BME280;15315;50.836;4.430;2024-01-25T11:49:09;102312.78;;;16.72;73.46
27980;BME280;15315;50.836;4.430;2024-01-25T11:59:10;102295.34;;;16.36;74.36
27980;BME280;15315;50.836;4.430;2024-01-25T12:09:11;102297.13;;;15.84;75.78
27980;BME280;15315;50.836;4.430;2024-01-25T12:19:12;102276.63;;;16.05;77.02
27980;BME280;15315;50.836;4.430;2024-01-25T12:29:13;102260.78;;;16.24;78.40
27980;BME280;15315;50.836;4.430;2024-01-25T12:39:13;102235.88;;;15.91;82.41
27980;BME280;15315;50.836;4.430;2024-01-25T12:49:14;102229.34;;;16.33;81.18
27980;BME280;15315;50.836;4.430;2024-01-25T12:59:15;102210.06;;;16.48;81.35
27980;BME280;15315;50.836;4.430;2024-01-25T13:09:15;102184.88;;;16.70;80.66
27980;BME280;15315;50.836;4.430;2024-01-25T13:19:16;102176.94;;;17.16;78.97
27980;BME280;15315;50.836;4.430;2024-01-25T13:29:16;102174.59;;;16.86;79.36
27980;BME280;15315;50.836;4.430;2024-01-25T13:39:17;102152.03;;;16.97;79.30
27980;BME280;15315;50.836;4.430;2024-01-25T13:49:17;102135.25;;;17.26;78.67
27980;BME280;15315;50.836;4.430;2024-01-25T13:59:18;102130.66;;;16.91;78.45
27980;BME280;15315;50.836;4.430;2024-01-25T14:09:18;102113.09;;;16.71;81.34
27980;BME280;15315;50.836;4.430;2024-01-25T14:19:19;102116.97;;;17.16;78.67
27980;BME280;15315;50.836;4.430;2024-01-25T14:29:20;102116.66;;;16.84;81.16
27980;BME280;15315;50.836;4.430;2024-01-25T14:39:21;102113.84;;;16.73;81.33
27980;BME280;15315;50.836;4.430;2024-01-25T14:49:21;102125.34;;;16.40;84.96
27980;BME280;15315;50.836;4.430;2024-01-25T14:59:22;102123.72;;;16.38;85.62
27980;BME280;15315;50.836;4.430;2024-01-25T15:09:22;102121.53;;;16.18;88.46
27980;BME280;15315;50.836;4.430;2024-01-25T15:19:23;102117.41;;;15.99;90.16
27980;BME280;15315;50.836;4.430;2024-01-25T15:29:23;102107.94;;;16.18;90.72
27980;BME280;15315;50.836;4.430;2024-01-25T15:39:24;102110.53;;;16.06;91.20
27980;BME280;15315;50.836;4.430;2024-01-25T15:49:24;102086.50;;;16.38;89.83
27980;BME280;15315;50.836;4.430;2024-01-25T15:59:24;102094.13;;;16.33;89.56
27980;BME280;15315;50.836;4.430;2024-01-25T16:09:25;102093.13;;;15.96;91.72
27980;BME280;15315;50.836;4.430;2024-01-25T16:19:25;102081.78;;;16.53;88.35
27980;BME280;15315;50.836;4.430;2024-01-25T16:29:25;102083.00;;;16.49;88.65
27980;BME280;15315;50.836;4.430;2024-01-25T16:39:26;102076.19;;;16.54;87.10
27980;BME280;15315;50.836;4.430;2024-01-25T16:49:27;102061.47;;;16.93;85.46
27980;BME280;15315;50.836;4.430;2024-01-25T16:59:28;102069.84;;;16.90;85.02
27980;BME280;15315;50.836;4.430;2024-01-25T17:09:30;102054.75;;;16.86;84.86
27980;BME280;15315;50.836;4.430;2024-01-25T17:19:30;102048.19;;;16.65;85.87
27980;BME280;15315;50.836;4.430;2024-01-25T17:29:30;102050.97;;;16.76;85.85
27980;BME280;15315;50.836;4.430;2024-01-25T17:39:31;102050.97;;;16.40;88.49
27980;BME280;15315;50.836;4.430;2024-01-25T17:49:31;102040.69;;;16.07;90.01
27980;BME280;15315;50.836;4.430;2024-01-25T17:59:32;102042.09;;;16.85;87.30
27980;BME280;15315;50.836;4.430;2024-01-25T18:09:32;102032.38;;;16.70;88.60
27980;BME280;15315;50.836;4.430;2024-01-25T18:19:32;102035.31;;;16.91;87.36
27980;BME280;15315;50.836;4.430;2024-01-25T18:29:35;102039.44;;;16.73;89.40
27980;BME280;15315;50.836;4.430;2024-01-25T18:39:37;102030.34;;;16.12;96.78
27980;BME280;15315;50.836;4.430;2024-01-25T18:49:37;102027.63;;;16.12;98.89
27980;BME280;15315;50.836;4.430;2024-01-25T18:59:38;102019.81;;;15.95;100.00
27980;BME280;15315;50.836;4.430;2024-01-25T19:09:39;102013.44;;;16.20;99.85
27980;BME280;15315;50.836;4.430;2024-01-25T19:19:39;102000.97;;;16.53;96.74
27980;BME280;15315;50.836;4.430;2024-01-25T19:29:39;101987.47;;;16.16;97.25
27980;BME280;15315;50.836;4.430;2024-01-25T19:39:40;101975.91;;;16.25;96.76
27980;BME280;15315;50.836;4.430;2024-01-25T19:49:40;101970.53;;;15.87;100.00
27980;BME280;15315;50.836;4.430;2024-01-25T19:59:41;101981.88;;;15.56;100.00
27980;BME280;15315;50.836;4.430;2024-01-25T20:09:43;101973.13;;;15.88;100.00
27980;BME280;15315;50.836;4.430;2024-01-25T20:19:43;101962.84;;;15.56;100.00
27980;BME280;15315;50.836;4.430;2024-01-25T20:29:43;101954.63;;;15.93;99.11
27980;BME280;15315;50.836;4.430;2024-01-25T20:39:44;101961.06;;;15.17;100.00
27980;BME280;15315;50.836;4.430;2024-01-25T20:49:44;101959.03;;;15.71;100.00
27980;BME280;15315;50.836;4.430;2024-01-25T20:59:45;101945.66;;;15.55;100.00
27980;BME280;15315;50.836;4.430;2024-01-25T21:09:46;101941.97;;;15.69;100.00
27980;BME280;15315;50.836;4.430;2024-01-25T21:19:46;101933.75;;;15.94;100.00
27980;BME280;15315;50.836;4.430;2024-01-25T21:29:46;101920.31;;;15.17;100.00
27980;BME280;15315;50.836;4.430;2024-01-25T21:39:47;101909.31;;;15.81;100.00
27980;BME280;15315;50.836;4.430;2024-01-25T21:49:47;101916.50;;;15.70;100.00
27980;BME280;15315;50.836;4.430;2024-01-25T21:59:48;101907.59;;;16.04;100.00
27980;BME280;15315;50.836;4.430;2024-01-25T22:09:49;101915.09;;;16.37;99.31
27980;BME280;15315;50.836;4.430;2024-01-25T22:19:49;101897.63;;;15.43;100.00
27980;BME280;15315;50.836;4.430;2024-01-25T22:29:49;101912.91;;;16.42;100.00
27980;BME280;15315;50.836;4.430;2024-01-25T22:39:50;101902.72;;;16.56;97.95
27980;BME280;15315;50.836;4.430;2024-01-25T22:49:50;101927.91;;;16.71;94.37
27980;BME280;15315;50.836;4.430;2024-01-25T22:59:50;101917.97;;;16.59;93.39
27980;BME280;15315;50.836;4.430;2024-01-25T23:09:51;101936.44;;;16.78;89.69
27980;BME280;15315;50.836;4.430;2024-01-25T23:19:51;101908.56;;;16.39;91.00
27980;BME280;15315;50.836;4.430;2024-01-25T23:29:52;101931.56;;;16.35;90.99
27980;BME280;15315;50.836;4.430;2024-01-25T23:39:53;101894.94;;;16.63;87.70
27980;BME280;15315;50.836;4.430;2024-01-25T23:49:53;101886.50;;;16.55;90.29
27980;BME280;15315;50.836;4.430;2024-01-25T23:59:53;101874.72;;;16.54;89.34
